Time;durP1;ratioP1;P1;durP2;ratioP2;P2;SDS_P1;SDS_P2;PMS_P1;PMS_P2;Temp;Humidity;BMP_temperature;BMP_pressure;BME280_temperature;BME280_humidity;BME280_pressure;Samples;Min_cycle;Max_cycle;Signal;HPM_P1;HPM_P2
2023/11/28 00:01:44;;;;;;;;;;;;;;;3.48;100.00;99899.34;5062123;28;19923;-82
2023/11/28 00:04:09;;;;;;;;;;;;;;;3.47;100.00;99913.63;5060885;28;20302;-82
2023/11/28 00:06:35;;;;;;;;;;;;;;;3.48;100.00;99912.66;5062054;28;19924;-82
2023/11/28 00:09:00;;;;;;;;;;;;;;;3.44;100.00;99927.25;5048505;28;19913;-82
2023/11/28 00:11:25;;;;;;;;;;;;;;;3.47;100.00;99922.44;5073128;28;19983;-80
2023/11/28 00:13:50;;;;;;;;;;;;;;;3.48;100.00;99918.81;5071830;28;19919;-80
2023/11/28 00:16:16;;;;;;;;;;;;;;;3.46;100.00;99928.75;5070197;28;19913;-80
2023/11/28 00:18:41;;;;;;;;;;;;;;;3.50;100.00;99926.59;5051542;28;19912;-80
2023/11/28 00:21:07;;;;;;;;;;;;;;;3.54;100.00;99927.97;5063665;28;19959;-82
2023/11/28 00:23:32;;;;;;;;;;;;;;;3.54;100.00;99927.13;5061392;28;19913;-80
2023/11/28 00:25:57;;;;;;;;;;;;;;;3.57;100.00;99942.78;5060874;28;19917;-81
2023/11/28 00:28:24;;;;;;;;;;;;;;;3.58;100.00;99944.44;5059932;28;19917;-80
2023/11/28 00:30:49;;;;;;;;;;;;;;;3.61;100.00;99944.97;5042471;28;19921;-81
2023/11/28 00:33:14;;;;;;;;;;;;;;;3.59;100.00;99960.25;5059461;28;20000;-79
2023/11/28 00:35:39;;;;;;;;;;;;;;;3.54;100.00;99954.56;5059788;28;19920;-81
2023/11/28 00:38:05;;;;;;;;;;;;;;;3.51;100.00;99962.88;5060640;28;19979;-82
2023/11/28 00:40:31;;;;;;;;;;;;;;;3.50;100.00;99966.50;5060327;28;19917;-80
2023/11/28 00:42:57;;;;;;;;;;;;;;;3.45;100.00;99969.66;5061140;28;19916;-82
2023/11/28 00:45:25;;;;;;;;;;;;;;;3.45;100.00;99974.13;5042995;28;20042;-81
2023/11/28 00:47:50;;;;;;;;;;;;;;;3.40;100.00;99990.56;5061747;28;19913;-82
2023/11/28 00:50:17;;;;;;;;;;;;;;;3.39;100.00;99972.09;5061287;28;19912;-82
2023/11/28 00:52:43;;;;;;;;;;;;;;;3.36;100.00;99983.06;5060306;28;20298;-82
2023/11/28 00:55:08;;;;;;;;;;;;;;;3.36;100.00;99991.03;5060317;28;19913;-81
2023/11/28 00:57:33;;;;;;;;;;;;;;;3.34;100.00;100003.66;5070589;28;19916;-80
2023/11/28 00:59:59;;;;;;;;;;;;;;;3.32;100.00;100008.28;5073824;28;19974;-83
2023/11/28 01:02:24;;;;;;;;;;;;;;;3.35;100.00;100013.31;5060973;28;19917;-82
2023/11/28 01:04:49;;;;;;;;;;;;;;;3.34;100.00;100024.94;5060862;28;19983;-81
2023/11/28 01:07:15;;;;;;;;;;;;;;;3.36;100.00;100036.25;5059740;28;19928;-81
2023/11/28 01:09:40;;;;;;;;;;;;;;;3.29;100.00;100044.00;5060230;28;20397;-82
2023/11/28 01:12:06;;;;;;;;;;;;;;;3.32;100.00;100056.16;5060687;28;19917;-82
2023/11/28 01:14:31;;;;;;;;;;;;;;;3.32;100.00;100057.00;5062054;28;19917;-80
2023/11/28 01:16:56;;;;;;;;;;;;;;;3.27;100.00;100053.97;5064892;28;19913;-83
2023/11/28 01:19:22;;;;;;;;;;;;;;;3.28;100.00;100059.13;5067307;28;19948;-81
2023/11/28 01:21:47;;;;;;;;;;;;;;;3.24;100.00;100055.13;5067908;28;19912;-79
2023/11/28 01:24:12;;;;;;;;;;;;;;;3.22;100.00;100073.03;5072844;28;19917;-80
2023/11/28 01:26:37;;;;;;;;;;;;;;;3.22;100.00;100073.03;5067493;28;19939;-83
2023/11/28 01:29:03;;;;;;;;;;;;;;;3.17;100.00;100066.53;5043094;28;19917;-80
2023/11/28 01:31:30;;;;;;;;;;;;;;;3.12;100.00;100072.28;5059491;28;19917;-83
2023/11/28 01:33:56;;;;;;;;;;;;;;;3.12;100.00;100077.59;5060727;28;19920;-80
2023/11/28 01:36:21;;;;;;;;;;;;;;;3.15;100.00;100093.25;5062393;28;19917;-82
2023/11/28 01:38:46;;;;;;;;;;;;;;;3.08;100.00;100087.72;5062452;28;20006;-83
2023/11/28 01:41:12;;;;;;;;;;;;;;;3.07;100.00;100095.84;5065567;28;19912;-80
2023/11/28 01:43:37;;;;;;;;;;;;;;;3.06;100.00;100105.63;5065757;28;19912;-82
2023/11/28 01:46:03;;;;;;;;;;;;;;;3.03;100.00;100110.44;5066684;28;19916;-80
2023/11/28 01:48:28;;;;;;;;;;;;;;;2.97;100.00;100113.69;5063081;28;19923;-83
2023/11/28 01:50:54;;;;;;;;;;;;;;;2.99;100.00;100119.69;5061819;28;19940;-82
2023/11/28 01:53:19;;;;;;;;;;;;;;;2.98;100.00;100118.03;5063280;28;19916;-81
2023/11/28 01:55:44;;;;;;;;;;;;;;;2.95;100.00;100127.13;5065435;28;19917;-81
2023/11/28 01:58:11;;;;;;;;;;;;;;;2.91;100.00;100128.41;5064078;28;20011;-82
2023/11/28 02:00:36;;;;;;;;;;;;;;;2.89;100.00;100140.19;5046493;28;19935;-81
2023/11/28 02:03:01;;;;;;;;;;;;;;;2.91;100.00;100143.53;5064340;28;19916;-81
2023/11/28 02:05:27;;;;;;;;;;;;;;;2.89;100.00;100148.97;5063337;28;19961;-83
2023/11/28 02:07:52;;;;;;;;;;;;;;;2.88;100.00;100151.81;5064246;28;19978;-83
2023/11/28 02:10:17;;;;;;;;;;;;;;;2.84;100.00;100157.41;5045847;28;19960;-80
2023/11/28 02:12:43;;;;;;;;;;;;;;;2.81;100.00;100162.19;5063633;28;19912;-79
2023/11/28 02:15:08;;;;;;;;;;;;;;;2.82;100.00;100162.03;5067620;28;19917;-80
2023/11/28 02:17:33;;;;;;;;;;;;;;;2.75;100.00;100171.59;5065455;28;19956;-82
2023/11/28 02:19:59;;;;;;;;;;;;;;;2.77;100.00;100179.41;5064335;28;19946;-82
2023/11/28 02:22:24;;;;;;;;;;;;;;;2.76;100.00;100185.69;5065895;28;19912;-82
2023/11/28 02:24:50;;;;;;;;;;;;;;;2.72;100.00;100192.31;5068393;28;19921;-82
2023/11/28 02:27:15;;;;;;;;;;;;;;;2.68;100.00;100191.75;5066234;28;20317;-83
2023/11/28 02:29:44;;;;;;;;;;;;;;;2.67;100.00;100200.72;5045052;28;19924;-83
2023/11/28 02:32:09;;;;;;;;;;;;;;;2.64;100.00;100203.66;5050440;28;19979;-83
2023/11/28 02:34:34;;;;;;;;;;;;;;;2.63;100.00;100216.13;5049850;28;20008;-81
2023/11/28 02:36:59;;;;;;;;;;;;;;;2.63;100.00;100215.25;5047513;28;19940;-81
2023/11/28 02:39:25;;;;;;;;;;;;;;;2.65;100.00;100223.94;5050118;28;19924;-81
2023/11/28 02:41:50;;;;;;;;;;;;;;;2.63;100.00;100228.53;5049725;28;19921;-81
2023/11/28 02:44:15;;;;;;;;;;;;;;;2.60;100.00;100226.19;5052051;28;19916;-79
2023/11/28 02:46:41;;;;;;;;;;;;;;;2.62;100.00;100229.53;5047606;28;20015;-80
2023/11/28 02:49:06;;;;;;;;;;;;;;;2.59;100.00;100233.31;5037998;28;19975;-79
2023/11/28 02:51:31;;;;;;;;;;;;;;;2.53;100.00;100231.25;5046753;28;19924;-79
2023/11/28 02:53:57;;;;;;;;;;;;;;;2.45;100.00;100232.94;5047544;28;19917;-80
2023/11/28 02:56:22;;;;;;;;;;;;;;;2.33;100.00;100241.09;5050721;28;19947;-82
2023/11/28 02:58:47;;;;;;;;;;;;;;;2.25;100.00;100243.63;5045489;28;19939;-81
2023/11/28 03:01:12;;;;;;;;;;;;;;;2.16;100.00;100255.09;5047324;28;19999;-81
2023/11/28 03:03:38;;;;;;;;;;;;;;;2.06;100.00;100256.94;5046612;28;19917;-82
2023/11/28 03:06:03;;;;;;;;;;;;;;;2.01;100.00;100267.13;5045169;28;19917;-81
2023/11/28 03:08:28;;;;;;;;;;;;;;;1.92;100.00;100264.34;5040762;28;19959;-81
2023/11/28 03:10:53;;;;;;;;;;;;;;;1.86;100.00;100264.88;5023781;28;19917;-82
2023/11/28 03:13:19;;;;;;;;;;;;;;;1.79;100.00;100268.25;5041579;28;19917;-81
2023/11/28 03:15:44;;;;;;;;;;;;;;;1.72;100.00;100271.47;5040044;28;20007;-80
2023/11/28 03:18:10;;;;;;;;;;;;;;;1.71;100.00;100285.72;5041429;28;19963;-82
2023/11/28 03:20:35;;;;;;;;;;;;;;;1.67;100.00;100278.16;5041716;28;19972;-82
2023/11/28 03:23:00;;;;;;;;;;;;;;;1.63;100.00;100274.09;5041866;28;19917;-83
2023/11/28 03:25:26;;;;;;;;;;;;;;;1.60;100.00;100287.63;5041329;28;19917;-82
2023/11/28 03:27:51;;;;;;;;;;;;;;;1.58;100.00;100289.56;5041749;28;19920;-82
2023/11/28 03:30:16;;;;;;;;;;;;;;;1.56;100.00;100283.59;5045813;28;19924;-83
2023/11/28 03:32:41;;;;;;;;;;;;;;;1.51;100.00;100282.19;5046474;28;19944;-83
2023/11/28 03:35:07;;;;;;;;;;;;;;;1.48;100.00;100277.16;5063050;28;19984;-83
2023/11/28 03:37:32;;;;;;;;;;;;;;;1.45;100.00;100289.84;5036268;28;19917;-84
2023/11/28 03:39:57;;;;;;;;;;;;;;;1.41;100.00;100291.94;5041200;28;19928;-81
2023/11/28 03:42:22;;;;;;;;;;;;;;;1.39;100.00;100288.56;5044273;28;20015;-83
2023/11/28 03:44:48;;;;;;;;;;;;;;;1.40;100.00;100289.44;5056879;28;19967;-82
2023/11/28 03:47:13;;;;;;;;;;;;;;;1.35;100.00;100297.78;5052565;28;19916;-85
2023/11/28 03:49:38;;;;;;;;;;;;;;;1.35;100.00;100302.25;5044378;28;19917;-82
2023/11/28 03:52:04;;;;;;;;;;;;;;;1.33;100.00;100312.97;5051060;28;19917;-83
2023/11/28 03:54:29;;;;;;;;;;;;;;;1.29;100.00;100303.63;5060475;28;19946;-81
2023/11/28 03:56:54;;;;;;;;;;;;;;;1.30;100.00;100306.13;5050844;28;19936;-83
2023/11/28 03:59:20;;;;;;;;;;;;;;;1.27;100.00;100306.41;5046368;28;20003;-81
2023/11/28 04:01:45;;;;;;;;;;;;;;;1.27;100.00;100308.22;5043080;28;19928;-83
2023/11/28 04:04:10;;;;;;;;;;;;;;;1.24;100.00;100316.47;5024758;28;19917;-80
2023/11/28 04:06:35;;;;;;;;;;;;;;;1.17;100.00;100317.97;5048748;28;19948;-81
2023/11/28 04:09:01;;;;;;;;;;;;;;;1.17;100.00;100325.91;5062990;28;19921;-83
2023/11/28 04:11:26;;;;;;;;;;;;;;;1.17;100.00;100339.16;5061245;28;20379;-81
2023/11/28 04:13:51;;;;;;;;;;;;;;;1.14;100.00;100336.78;5053173;28;19917;-83
2023/11/28 04:16:19;;;;;;;;;;;;;;;1.10;100.00;100334.38;5042832;28;20333;-82
2023/11/28 04:18:49;;;;;;;;;;;;;;;1.08;100.00;100341.66;5054136;28;19917;-83
2023/11/28 04:21:15;;;;;;;;;;;;;;;1.07;100.00;100337.31;5060498;28;19917;-82
2023/11/28 04:23:41;;;;;;;;;;;;;;;1.05;100.00;100339.28;5048913;28;19917;-82
2023/11/28 04:26:06;;;;;;;;;;;;;;;1.04;100.00;100337.56;5053572;28;20035;-82
2023/11/28 04:28:32;;;;;;;;;;;;;;;1.01;100.00;100340.50;5059041;28;19972;-83
2023/11/28 04:30:57;;;;;;;;;;;;;;;0.99;100.00;100345.06;5057234;28;20424;-82
2023/11/28 04:33:22;;;;;;;;;;;;;;;1.01;100.00;100356.38;5077352;28;20003;-83
2023/11/28 04:35:48;;;;;;;;;;;;;;;0.98;100.00;100359.31;5061782;28;20386;-82
2023/11/28 04:38:13;;;;;;;;;;;;;;;0.94;100.00;100359.69;5062028;28;19988;-82
2023/11/28 04:40:38;;;;;;;;;;;;;;;0.95;100.00;100364.88;5062377;28;20428;-80
2023/11/28 04:43:03;;;;;;;;;;;;;;;0.93;100.00;100377.41;5062526;28;20367;-82
2023/11/28 04:45:28;;;;;;;;;;;;;;;0.95;100.00;100390.50;5054140;28;19923;-80
2023/11/28 04:47:54;;;;;;;;;;;;;;;0.97;100.00;100386.75;5052634;28;19924;-79
2023/11/28 04:50:19;;;;;;;;;;;;;;;0.96;100.00;100379.78;5069061;28;19920;-81
2023/11/28 04:52:44;;;;;;;;;;;;;;;0.93;100.00;100382.72;5067166;28;20009;-79
2023/11/28 04:55:09;;;;;;;;;;;;;;;0.89;100.00;100394.53;5069725;28;19913;-80
2023/11/28 04:57:35;;;;;;;;;;;;;;;0.94;100.00;100405.56;5068368;28;20389;-79
2023/11/28 05:00:00;;;;;;;;;;;;;;;0.85;100.00;100403.72;5067685;28;19975;-80
2023/11/28 05:02:25;;;;;;;;;;;;;;;0.83;100.00;100410.94;5074042;28;19924;-80
2023/11/28 05:04:50;;;;;;;;;;;;;;;0.81;100.00;100415.53;5066896;28;19912;-81
2023/11/28 05:07:18;;;;;;;;;;;;;;;0.84;100.00;100420.56;5067861;28;20304;-82
2023/11/28 05:09:43;;;;;;;;;;;;;;;0.82;100.00;100420.72;5062700;28;19916;-83
2023/11/28 05:12:08;;;;;;;;;;;;;;;0.83;100.00;100424.19;5062367;28;20270;-81
2023/11/28 05:14:34;;;;;;;;;;;;;;;0.80;100.00;100424.47;5063150;28;20291;-81
2023/11/28 05:17:00;;;;;;;;;;;;;;;0.80;100.00;100435.88;5061655;28;19943;-83
2023/11/28 05:19:25;;;;;;;;;;;;;;;0.84;100.00;100447.94;5043819;28;19975;-82
2023/11/28 05:21:52;;;;;;;;;;;;;;;0.87;100.00;100454.78;5061451;28;19920;-82
2023/11/28 05:24:18;;;;;;;;;;;;;;;0.82;100.00;100455.16;5063127;28;19963;-82
2023/11/28 05:26:43;;;;;;;;;;;;;;;0.82;100.00;100457.81;5061514;28;19917;-82
2023/11/28 05:29:08;;;;;;;;;;;;;;;0.74;100.00;100460.25;5061305;28;19917;-82
2023/11/28 05:31:33;;;;;;;;;;;;;;;0.75;100.00;100463.75;5061544;28;19925;-83
2023/11/28 05:33:59;;;;;;;;;;;;;;;0.73;100.00;100458.56;5055672;28;19920;-81
2023/11/28 05:36:26;;;;;;;;;;;;;;;0.73;100.00;100463.03;5051456;28;19925;-82
2023/11/28 05:38:51;;;;;;;;;;;;;;;0.72;100.00;100464.00;5032101;28;19927;-81
2023/11/28 05:41:16;;;;;;;;;;;;;;;0.74;100.00;100467.34;5047815;28;20015;-81
2023/11/28 05:43:42;;;;;;;;;;;;;;;0.71;100.00;100465.81;5033472;28;19947;-83
2023/11/28 05:46:07;;;;;;;;;;;;;;;0.67;100.00;100463.53;5039086;28;19944;-80
2023/11/28 05:48:32;;;;;;;;;;;;;;;0.67;100.00;100460.88;5040550;28;19917;-81
2023/11/28 05:50:58;;;;;;;;;;;;;;;0.71;100.00;100464.94;5019513;28;19921;-81
2023/11/28 05:53:23;;;;;;;;;;;;;;;0.67;100.00;100463.53;5036657;28;19917;-81
2023/11/28 05:55:48;;;;;;;;;;;;;;;0.69;100.00;100464.25;5054440;28;19920;-80
2023/11/28 05:58:14;;;;;;;;;;;;;;;0.69;100.00;100473.03;5049236;28;19920;-82
2023/11/28 06:00:40;;;;;;;;;;;;;;;0.64;100.00;100469.94;5052458;28;19921;-80
2023/11/28 06:03:06;;;;;;;;;;;;;;;0.60;100.00;100473.78;5041845;28;19920;-81
2023/11/28 06:05:31;;;;;;;;;;;;;;;0.56;100.00;100475.84;5045728;28;19984;-79
2023/11/28 06:07:56;;;;;;;;;;;;;;;0.55;100.00;100479.44;5042025;28;19977;-79
2023/11/28 06:10:22;;;;;;;;;;;;;;;0.52;100.00;100479.72;5068706;28;19940;-79
2023/11/28 06:12:47;;;;;;;;;;;;;;;0.53;100.00;100497.28;5048289;28;19928;-81
2023/11/28 06:15:12;;;;;;;;;;;;;;;0.53;100.00;100497.28;5037694;28;20360;-79
2023/11/28 06:17:38;;;;;;;;;;;;;;;0.49;100.00;100495.03;5046177;28;19916;-81
2023/11/28 06:20:04;;;;;;;;;;;;;;;0.54;100.00;100504.25;5059295;28;19925;-81
2023/11/28 06:22:29;;;;;;;;;;;;;;;0.52;100.00;100500.91;5021061;28;20371;-82
2023/11/28 06:24:55;;;;;;;;;;;;;;;0.53;100.00;100504.41;5026749;28;19940;-82
2023/11/28 06:27:20;;;;;;;;;;;;;;;0.57;100.00;100504.00;5036500;28;19917;-82
2023/11/28 06:29:45;;;;;;;;;;;;;;;0.55;100.00;100515.69;5046056;28;19916;-82
2023/11/28 06:32:10;;;;;;;;;;;;;;;0.55;100.00;100515.69;5061049;28;19923;-81
2023/11/28 06:34:35;;;;;;;;;;;;;;;0.55;100.00;100527.13;5060338;28;19913;-81
2023/11/28 06:37:01;;;;;;;;;;;;;;;0.60;100.00;100532.88;5060769;28;19916;-81
2023/11/28 06:39:27;;;;;;;;;;;;;;;0.57;100.00;100541.09;5079267;28;19913;-82
2023/11/28 06:41:52;;;;;;;;;;;;;;;0.47;100.00;100540.13;5048693;28;20014;-82
2023/11/28 06:44:19;;;;;;;;;;;;;;;0.50;100.00;100547.88;5065648;28;19952;-80
2023/11/28 06:46:46;;;;;;;;;;;;;;;0.47;100.00;100550.72;5046499;28;19939;-82
2023/11/28 06:49:11;;;;;;;;;;;;;;;0.46;100.00;100551.72;5063428;28;19916;-80
2023/11/28 06:51:37;;;;;;;;;;;;;;;0.48;100.00;100563.03;5064813;28;19940;-81
2023/11/28 06:54:02;;;;;;;;;;;;;;;0.45;100.00;100568.56;5064467;28;19919;-81
2023/11/28 06:56:27;;;;;;;;;;;;;;;0.44;100.00;100573.00;5063040;28;19916;-82
2023/11/28 06:58:52;;;;;;;;;;;;;;;0.50;100.00;100581.41;5063876;28;19913;-80
2023/11/28 07:01:18;;;;;;;;;;;;;;;0.52;100.00;100588.28;5063521;28;19925;-81
2023/11/28 07:03:43;;;;;;;;;;;;;;;0.44;100.00;100588.88;5046390;28;20270;-80
2023/11/28 07:06:09;;;;;;;;;;;;;;;0.47;100.00;100597.56;5055398;28;19980;-81
2023/11/28 07:08:34;;;;;;;;;;;;;;;0.50;100.00;100603.47;5063928;28;19917;-78
2023/11/28 07:11:00;;;;;;;;;;;;;;;0.48;100.00;100602.75;5063318;28;19963;-78
2023/11/28 07:13:27;;;;;;;;;;;;;;;0.57;100.00;100603.81;5062686;28;19929;-79
2023/11/28 07:15:52;;;;;;;;;;;;;;;0.55;100.00;100609.22;5046635;28;19927;-81
2023/11/28 07:18:20;;;;;;;;;;;;;;;0.55;100.00;100603.91;5063645;28;19917;-79
2023/11/28 07:20:49;;;;;;;;;;;;;;;0.55;100.00;100597.78;5062660;28;19932;-79
2023/11/28 07:23:14;;;;;;;;;;;;;;;0.53;100.00;100603.22;5063577;28;19913;-81
2023/11/28 07:25:40;;;;;;;;;;;;;;;0.54;100.00;100604.88;5064101;28;19936;-79
2023/11/28 07:28:05;;;;;;;;;;;;;;;0.51;100.00;100609.59;5046098;28;19990;-80
2023/11/28 07:30:30;;;;;;;;;;;;;;;0.48;100.00;100602.75;5064518;28;19917;-81
2023/11/28 07:32:55;;;;;;;;;;;;;;;0.51;100.00;100610.44;5046931;28;19913;-79
2023/11/28 07:35:21;;;;;;;;;;;;;;;0.51;100.00;100610.44;5043901;28;19960;-79
2023/11/28 07:37:46;;;;;;;;;;;;;;;0.49;100.00;100612.34;5043642;28;19925;-82
2023/11/28 07:40:11;;;;;;;;;;;;;;;0.55;100.00;100622.44;5044752;28;19932;-78
2023/11/28 07:42:37;;;;;;;;;;;;;;;0.62;100.00;100625.47;5046327;28;20042;-78
2023/11/28 07:45:02;;;;;;;;;;;;;;;0.65;100.00;100623.41;5025595;28;19917;-80
2023/11/28 07:47:27;;;;;;;;;;;;;;;0.73;100.00;100625.44;5050898;28;19924;-78
2023/11/28 07:49:54;;;;;;;;;;;;;;;0.74;100.00;100626.25;5044601;28;19913;-81
2023/11/28 07:52:19;;;;;;;;;;;;;;;0.73;100.00;100635.19;5041325;28;19925;-80
2023/11/28 07:54:44;;;;;;;;;;;;;;;0.77;100.00;100636.63;5045403;28;19941;-81
2023/11/28 07:57:09;;;;;;;;;;;;;;;0.96;100.00;100646.59;5050190;28;19923;-79
2023/11/28 07:59:35;;;;;;;;;;;;;;;1.19;100.00;100639.41;5043956;28;19912;-80
2023/11/28 08:02:00;;;;;;;;;;;;;;;1.35;100.00;100644.28;5042940;28;20341;-79
2023/11/28 08:04:25;;;;;;;;;;;;;;;1.61;100.00;100652.72;5039494;28;19992;-81
2023/11/28 08:06:51;;;;;;;;;;;;;;;1.86;100.00;100652.31;5038391;28;19920;-80
2023/11/28 08:09:16;;;;;;;;;;;;;;;2.24;100.00;100656.16;5044567;28;19921;-80
2023/11/28 08:11:41;;;;;;;;;;;;;;;2.67;100.00;100655.06;5044088;28;19913;-80
2023/11/28 08:14:07;;;;;;;;;;;;;;;3.33;100.00;100653.63;5040466;28;19917;-80
2023/11/28 08:16:32;;;;;;;;;;;;;;;4.19;100.00;100662.47;5037478;28;19928;-82
2023/11/28 08:18:57;;;;;;;;;;;;;;;5.03;100.00;100657.03;5028530;28;20024;-80
2023/11/28 08:21:23;;;;;;;;;;;;;;;6.15;100.00;100653.78;5047254;28;19928;-79
2023/11/28 08:23:48;;;;;;;;;;;;;;;6.62;100.00;100649.88;5025838;28;19956;-80
2023/11/28 08:26:14;;;;;;;;;;;;;;;7.20;100.00;100643.66;5049849;28;19967;-81
2023/11/28 08:28:39;;;;;;;;;;;;;;;7.48;100.00;100646.06;5043259;28;19913;-81
2023/11/28 08:31:05;;;;;;;;;;;;;;;7.92;100.00;100651.03;5055281;28;21670;-81
2023/11/28 08:33:30;;;;;;;;;;;;;;;8.22;100.00;100651.34;5025938;28;19921;-82
2023/11/28 08:35:55;;;;;;;;;;;;;;;8.34;100.00;100658.00;5062571;28;19936;-82
2023/11/28 08:38:20;;;;;;;;;;;;;;;8.54;100.00;100664.69;5055964;28;19927;-80
2023/11/28 08:40:46;;;;;;;;;;;;;;;8.50;100.00;100673.25;5058857;28;19913;-81
2023/11/28 08:43:11;;;;;;;;;;;;;;;8.23;100.00;100677.13;5059175;28;19988;-81
2023/11/28 08:45:36;;;;;;;;;;;;;;;8.34;100.00;100684.81;5060735;28;19924;-81
2023/11/28 08:48:02;;;;;;;;;;;;;;;7.96;100.00;100686.41;5059897;28;20278;-81
2023/11/28 08:50:27;;;;;;;;;;;;;;;7.68;100.00;100690.22;5058301;28;19917;-81
2023/11/28 08:52:52;;;;;;;;;;;;;;;7.82;100.00;100690.56;5058919;28;19917;-81
2023/11/28 08:55:18;;;;;;;;;;;;;;;7.46;100.00;100702.44;5052456;28;19978;-81
2023/11/28 08:57:44;;;;;;;;;;;;;;;7.42;100.00;100701.09;5060800;28;19994;-80
2023/11/28 09:00:09;;;;;;;;;;;;;;;7.35;100.00;100697.41;5059933;28;20333;-81
2023/11/28 09:02:35;;;;;;;;;;;;;;;7.32;100.00;100705.78;5061082;28;19919;-80
2023/11/28 09:05:00;;;;;;;;;;;;;;;7.39;100.00;100701.41;5061123;28;19924;-81
2023/11/28 09:07:25;;;;;;;;;;;;;;;7.21;100.00;100701.56;5060310;28;19912;-80
2023/11/28 09:09:51;;;;;;;;;;;;;;;7.42;100.00;100702.94;5059884;28;19917;-81
2023/11/28 09:12:17;;;;;;;;;;;;;;;7.47;100.00;100709.47;5061102;28;19935;-81
2023/11/28 09:14:42;;;;;;;;;;;;;;;7.41;100.00;100706.63;5060522;28;19912;-79
2023/11/28 09:17:07;;;;;;;;;;;;;;;7.33;100.00;100707.44;5060549;28;19917;-80
2023/11/28 09:19:32;;;;;;;;;;;;;;;7.20;100.00;100712.44;5042486;28;19927;-80
2023/11/28 09:21:58;;;;;;;;;;;;;;;7.10;100.00;100701.03;5060534;28;19916;-81
2023/11/28 09:24:23;;;;;;;;;;;;;;;7.26;100.00;100712.59;5063818;28;19917;-81
2023/11/28 09:26:48;;;;;;;;;;;;;;;7.35;100.00;100720.69;5067553;28;19928;-79
2023/11/28 09:29:16;;;;;;;;;;;;;;;7.61;100.00;100720.53;5050206;28;20007;-81
2023/11/28 09:31:42;;;;;;;;;;;;;;;7.67;100.00;100728.75;5068228;28;19924;-80
2023/11/28 09:34:07;;;;;;;;;;;;;;;7.80;100.00;100725.59;5073454;28;19901;-83
2023/11/28 09:36:32;;;;;;;;;;;;;;;7.91;100.00;100721.72;5068125;28;19923;-84
2023/11/28 09:39:03;;;;;;;;;;;;;;;7.76;100.00;100723.41;5061262;28;20294;-80
2023/11/28 09:41:28;;;;;;;;;;;;;;;7.41;100.00;100722.69;5060458;28;19927;-81
2023/11/28 09:43:53;;;;;;;;;;;;;;;7.45;100.00;100730.25;5066141;28;19912;-81
2023/11/28 09:46:22;;;;;;;;;;;;;;;7.06;100.00;100737.13;5066067;28;19956;-80
2023/11/28 09:48:48;;;;;;;;;;;;;;;6.91;100.00;100736.91;5070069;28;19916;-80
2023/11/28 09:51:13;;;;;;;;;;;;;;;7.34;100.00;100724.34;5065146;28;19919;-78
2023/11/28 09:53:39;;;;;;;;;;;;;;;7.10;100.00;100733.97;5074869;28;20028;-79
2023/11/28 09:56:04;;;;;;;;;;;;;;;6.50;100.00;100734.03;5065106;28;19923;-79
2023/11/28 09:58:29;;;;;;;;;;;;;;;6.41;100.00;100743.00;5071098;28;20075;-80
2023/11/28 10:00:55;;;;;;;;;;;;;;;6.08;100.00;100748.09;5061814;28;19966;-81
2023/11/28 10:03:21;;;;;;;;;;;;;;;6.09;100.00;100749.78;5041947;28;19952;-81
2023/11/28 10:05:46;;;;;;;;;;;;;;;6.04;100.00;100752.09;5071269;28;19916;-81
2023/11/28 10:08:12;;;;;;;;;;;;;;;5.75;100.00;100745.13;5067429;28;19912;-82
2023/11/28 10:10:39;;;;;;;;;;;;;;;5.67;100.00;100743.22;5041525;28;19955;-82
2023/11/28 10:13:04;;;;;;;;;;;;;;;6.08;100.00;100748.09;5060897;28;19947;-82
2023/11/28 10:15:29;;;;;;;;;;;;;;;6.48;100.00;100754.75;5064085;28;19917;-83
2023/11/28 10:17:55;;;;;;;;;;;;;;;6.70;100.00;100759.53;5064160;28;20260;-82
2023/11/28 10:20:21;;;;;;;;;;;;;;;6.79;100.00;100761.28;5043978;28;20283;-83
2023/11/28 10:22:51;;;;;;;;;;;;;;;7.02;100.00;100753.50;5063206;28;19916;-83
2023/11/28 10:25:16;;;;;;;;;;;;;;;7.14;100.00;100761.25;5062194;28;19916;-81
2023/11/28 10:27:42;;;;;;;;;;;;;;;7.58;100.00;100758.34;5061313;28;19966;-82
2023/11/28 10:30:11;;;;;;;;;;;;;;;6.97;100.00;100753.16;5063273;28;19979;-82
2023/11/28 10:32:37;;;;;;;;;;;;;;;6.95;100.00;100754.31;5045341;28;19939;-81
2023/11/28 10:35:03;;;;;;;;;;;;;;;7.01;100.00;100751.00;5042477;28;19927;-82
2023/11/28 10:37:28;;;;;;;;;;;;;;;7.21;100.00;100751.56;5042410;28;19968;-81
2023/11/28 10:39:56;;;;;;;;;;;;;;;7.28;100.00;100751.78;5038956;28;19912;-81
2023/11/28 10:42:21;;;;;;;;;;;;;;;6.87;100.00;100743.56;5023595;28;19920;-82
2023/11/28 10:44:47;;;;;;;;;;;;;;;7.01;100.00;100748.34;5042092;28;19917;-82
2023/11/28 10:47:12;;;;;;;;;;;;;;;6.84;100.00;100733.19;5050592;28;19921;-82
2023/11/28 10:49:38;;;;;;;;;;;;;;;6.86;100.00;100731.22;5035708;28;19920;-81
2023/11/28 10:52:03;;;;;;;;;;;;;;;6.91;100.00;100724.38;5061566;28;20354;-81
2023/11/28 10:54:29;;;;;;;;;;;;;;;6.72;100.00;100714.75;5042990;28;19919;-81
2023/11/28 10:56:57;;;;;;;;;;;;;;;6.72;100.00;100720.13;5025376;28;20051;-81
2023/11/28 10:59:35;;;;;;;;;;;;;;;6.98;100.00;100724.59;5026059;28;20264;-81
2023/11/28 11:02:01;;;;;;;;;;;;;;;6.74;100.00;100741.34;5044448;28;19925;-81
2023/11/28 11:04:26;;;;;;;;;;;;;;;7.07;100.00;100739.66;5054570;28;19919;-81
2023/11/28 11:06:52;;;;;;;;;;;;;;;7.24;100.00;100741.41;5058437;28;19952;-79
2023/11/28 11:09:18;;;;;;;;;;;;;;;7.46;100.00;100744.47;5075510;28;19920;-81
2023/11/28 11:11:43;;;;;;;;;;;;;;;7.71;100.00;100748.00;5064727;28;19912;-82
2023/11/28 11:14:12;;;;;;;;;;;;;;;8.26;100.00;100741.16;5044424;28;19920;-82
2023/11/28 11:16:39;;;;;;;;;;;;;;;8.15;100.00;100736.97;5024316;28;19913;-81
2023/11/28 11:19:04;;;;;;;;;;;;;;;8.22;100.00;100734.47;5041773;28;19928;-82
2023/11/28 11:21:35;;;;;;;;;;;;;;;8.48;100.00;100729.75;5041859;28;20013;-81
2023/11/28 11:24:00;;;;;;;;;;;;;;;8.97;100.00;100740.31;5041854;28;19952;-81
2023/11/28 11:26:39;;;;;;;;;;;;;;;9.68;98.90;100734.91;5024968;28;19920;-82
2023/11/28 11:29:23;;;;;;;;;;;;;;;9.64;94.21;100725.53;5042509;28;19913;-83
2023/11/28 11:31:58;;;;;;;;;;;;;;;9.82;91.77;100731.44;5062985;28;19913;-81
2023/11/28 11:34:33;;;;;;;;;;;;;;;9.31;93.57;100725.72;5058431;28;19913;-82
2023/11/28 11:37:28;;;;;;;;;;;;;;;9.38;95.90;100718.66;5047222;28;19917;-81
2023/11/28 11:39:53;;;;;;;;;;;;;;;9.35;95.31;100721.69;5039132;28;20264;-81
2023/11/28 11:42:19;;;;;;;;;;;;;;;9.58;91.64;100715.47;5063510;28;19919;-82
2023/11/28 11:44:46;;;;;;;;;;;;;;;9.76;93.98;100720.56;5051662;28;19913;-82
2023/11/28 11:47:14;;;;;;;;;;;;;;;9.37;91.34;100727.72;5074839;28;19952;-79
2023/11/28 11:49:39;;;;;;;;;;;;;;;9.13;95.80;100722.47;5071928;28;19927;-81
2023/11/28 11:52:14;;;;;;;;;;;;;;;8.96;94.42;100722.53;5049625;28;19944;-84
2023/11/28 11:54:40;;;;;;;;;;;;;;;8.76;99.32;100722.09;5033343;28;19913;-81
2023/11/28 11:57:05;;;;;;;;;;;;;;;8.89;100.00;100721.56;5072258;28;19979;-81
2023/11/28 11:59:30;;;;;;;;;;;;;;;8.41;96.63;100712.66;5072377;28;19936;-81
2023/11/28 12:01:58;;;;;;;;;;;;;;;8.23;97.66;100718.19;5069335;28;19988;-82
2023/11/28 12:04:23;;;;;;;;;;;;;;;8.05;100.00;100706.81;5062118;28;19917;-82
2023/11/28 12:06:59;;;;;;;;;;;;;;;7.69;100.00;100716.03;5062082;28;19944;-82
2023/11/28 12:09:25;;;;;;;;;;;;;;;7.23;100.00;100704.91;5043612;28;20400;-82
2023/11/28 12:11:50;;;;;;;;;;;;;;;6.92;100.00;100709.16;5062746;28;19982;-83
2023/11/28 12:14:15;;;;;;;;;;;;;;;6.70;100.00;100707.91;5067521;28;19948;-82
2023/11/28 12:16:44;;;;;;;;;;;;;;;6.57;100.00;100711.00;5071618;28;19919;-81
2023/11/28 12:19:09;;;;;;;;;;;;;;;6.48;100.00;100707.47;5070050;28;19920;-81
2023/11/28 12:21:34;;;;;;;;;;;;;;;6.49;100.00;100702.94;5060952;28;19912;-81
2023/11/28 12:24:00;;;;;;;;;;;;;;;6.52;100.00;100713.31;5059748;28;20007;-81
2023/11/28 12:26:25;;;;;;;;;;;;;;;6.38;100.00;100712.91;5059720;28;20013;-80
2023/11/28 12:28:50;;;;;;;;;;;;;;;6.43;100.00;100712.44;5059419;28;19925;-82
2023/11/28 12:31:16;;;;;;;;;;;;;;;6.53;100.00;100713.16;5026065;28;19917;-83